createdAt,value
2022-08-21T00:00:11.326Z,1211.58
2022-08-21T00:01:10.725Z,1211.58
2022-08-21T00:02:10.696Z,1211.58
2022-08-21T00:03:11.307Z,1211.58
2022-08-21T00:04:11.282Z,1211.58
2022-08-21T00:05:11.267Z,1211.58
2022-08-21T00:06:14.033Z,1211.58
2022-08-21T00:07:10.693Z,1211.58
2022-08-21T00:08:10.594Z,1211.58
2022-08-21T00:09:11.224Z,1211.58
2022-08-21T00:10:11.217Z,1211.58
2022-08-21T00:11:11.208Z,1211.58
2022-08-21T00:12:10.506Z,1211.58
2022-08-21T00:13:10.580Z,1211.58
2022-08-21T00:14:10.480Z,1211.58
2022-08-21T00:15:11.171Z,1211.58
2022-08-21T00:16:11.158Z,1211.58
2022-08-21T00:17:10.450Z,1211.58
2022-08-21T00:18:12.393Z,1211.58
2022-08-21T00:19:12.431Z,1211.58
2022-08-21T00:20:10.409Z,1211.58
2022-08-21T00:21:11.096Z,1211.58
2022-08-21T00:22:10.414Z,1211.58
2022-08-21T00:23:11.072Z,1211.58
2022-08-21T00:24:10.384Z,1211.58
2022-08-21T00:25:12.922Z,1211.58
2022-08-21T00:26:11.069Z,1211.58
2022-08-21T00:27:11.023Z,1211.58
2022-08-21T00:28:11.016Z,1211.58
2022-08-21T00:29:10.314Z,1211.58
2022-08-21T00:30:10.314Z,1211.58
2022-08-21T00:31:10.998Z,1211.58
2022-08-21T00:32:12.265Z,1211.58
2022-08-21T00:33:10.966Z,1211.58
2022-08-21T00:34:10.957Z,1211.58
2022-08-21T00:35:10.262Z,1211.58
2022-08-21T00:36:10.274Z,1211.58
2022-08-21T00:37:12.746Z,1211.58
2022-08-21T00:38:10.916Z,1211.58
2022-08-21T00:39:10.906Z,1211.58
2022-08-21T00:40:11.061Z,1211.58
2022-08-21T00:41:37.164Z,1211.58
2022-08-21T00:42:11.869Z,1211.58
2022-08-21T00:43:10.197Z,1211.58
2022-08-21T00:44:10.848Z,1211.58
2022-08-21T00:45:10.839Z,1211.58
2022-08-21T00:46:10.841Z,1211.58
2022-08-21T00:47:10.139Z,1211.58
2022-08-21T00:48:10.152Z,1211.58
2022-08-21T00:49:10.809Z,1211.58
2022-08-21T00:50:10.131Z,1211.58
2022-08-21T00:51:13.059Z,1211.58
2022-08-21T00:52:10.070Z,1211.58
2022-08-21T00:53:10.079Z,1211.58
2022-08-21T00:54:16.912Z,1211.58
2022-08-21T00:55:12.481Z,1211.58
2022-08-21T00:56:10.736Z,1211.58
2022-08-21T00:57:10.053Z,1211.58
2022-08-21T00:58:10.717Z,1211.58
2022-08-21T00:59:10.022Z,1211.58
2022-08-21T01:00:10.146Z,1211.58
2022-08-21T01:01:10.025Z,1211.58
2022-08-21T01:02:10.662Z,1211.58
2022-08-21T01:03:10.655Z,1211.58
2022-08-21T01:04:10.639Z,1211.58
2022-08-21T01:05:09.968Z,1211.58
2022-08-21T01:06:09.968Z,1211.58
2022-08-21T01:07:09.926Z,1211.58
2022-08-21T01:08:10.633Z,1211.58
2022-08-21T01:09:10.592Z,1211.58
2022-08-21T01:10:20.587Z,1211.58
2022-08-21T01:11:10.929Z,1211.58
2022-08-21T01:12:10.557Z,1211.58
2022-08-21T01:13:10.538Z,1211.58
2022-08-21T01:14:10.530Z,1211.58
2022-08-21T01:15:09.856Z,1211.58
2022-08-21T01:16:10.509Z,1211.58
2022-08-21T01:17:10.490Z,1211.58
2022-08-21T01:18:10.495Z,1211.58
2022-08-21T01:19:09.837Z,1211.58
2022-08-21T01:20:10.471Z,1211.58
2022-08-21T01:21:09.782Z,1211.58
2022-08-21T01:22:09.778Z,1211.58
2022-08-21T01:23:09.828Z,1211.58
2022-08-21T01:24:09.757Z,1211.58
2022-08-21T01:25:10.419Z,1211.58
2022-08-21T01:26:10.400Z,1211.58
2022-08-21T01:27:09.711Z,1211.58
2022-08-21T01:28:10.379Z,1211.58
2022-08-21T01:29:10.378Z,1211.58
2022-08-21T01:30:09.672Z,1211.58
2022-08-21T01:31:11.612Z,1211.58
2022-08-21T01:32:09.661Z,1211.58
2022-08-21T01:33:09.642Z,1211.58
2022-08-21T01:34:09.647Z,1211.58
2022-08-21T01:35:09.680Z,1211.58
2022-08-21T01:36:09.612Z,1211.58
2022-08-21T01:37:10.283Z,1211.58
2022-08-21T01:38:10.278Z,1211.58
2022-08-21T01:39:09.604Z,1211.58
2022-08-21T01:40:09.627Z,1211.58
2022-08-21T01:41:09.600Z,1211.58
2022-08-21T01:42:09.594Z,1211.58
2022-08-21T01:43:10.227Z,1211.58
2022-08-21T01:44:09.558Z,1211.58
2022-08-21T01:45:10.206Z,1211.58
2022-08-21T01:46:10.957Z,1211.58
2022-08-21T01:47:10.185Z,1211.58
2022-08-21T01:48:10.175Z,1211.58
2022-08-21T01:49:10.159Z,1211.58
2022-08-21T01:50:10.151Z,1211.58
2022-08-21T01:51:09.467Z,1211.58
2022-08-21T01:52:09.690Z,1211.58
2022-08-21T01:53:09.490Z,1211.58
2022-08-21T01:54:11.359Z,1211.58
2022-08-21T01:55:09.419Z,1211.58
2022-08-21T01:56:12.098Z,1211.58
2022-08-21T01:57:10.087Z,1211.58
2022-08-21T01:58:09.399Z,1211.58
2022-08-21T01:59:10.042Z,1211.58
2022-08-21T02:00:10.061Z,1211.58
2022-08-21T02:01:11.884Z,1211.58
2022-08-21T02:02:09.339Z,1211.58
2022-08-21T02:03:09.343Z,1211.58
2022-08-21T02:04:09.999Z,1211.58
2022-08-21T02:05:09.363Z,1211.58
2022-08-21T02:06:09.973Z,1211.58
2022-08-21T02:07:10.321Z,1211.58
2022-08-21T02:08:09.310Z,1211.58
2022-08-21T02:09:09.943Z,1211.58
2022-08-21T02:10:09.294Z,1211.58
2022-08-21T02:11:09.921Z,1211.58
2022-08-21T02:12:09.252Z,1211.58
2022-08-21T02:13:09.904Z,1211.58
2022-08-21T02:14:09.223Z,1211.58
2022-08-21T02:15:09.885Z,1211.58
2022-08-21T02:16:09.243Z,1211.58
2022-08-21T02:17:09.910Z,1211.58
2022-08-21T02:18:09.847Z,1211.58
2022-08-21T02:19:11.660Z,1211.58
2022-08-21T02:20:09.825Z,1211.58
2022-08-21T02:21:09.831Z,1211.58
2022-08-21T02:22:09.795Z,1211.58
2022-08-21T02:23:09.874Z,1211.58
2022-08-21T02:24:09.785Z,1211.58
2022-08-21T02:25:09.105Z,1211.58
2022-08-21T02:26:09.088Z,1211.58
2022-08-21T02:27:09.749Z,1211.58
2022-08-21T02:28:09.728Z,1211.58
2022-08-21T02:29:10.528Z,1211.58
2022-08-21T02:30:09.029Z,1211.58
2022-08-21T02:31:09.708Z,1211.58
2022-08-21T02:32:09.701Z,1211.58
2022-08-21T02:33:09.690Z,1211.58
2022-08-21T02:34:11.430Z,1211.58
2022-08-21T02:35:09.651Z,1211.58
2022-08-21T02:36:08.965Z,1211.58
2022-08-21T02:37:08.980Z,1211.58
2022-08-21T02:38:13.094Z,1211.58
2022-08-21T02:39:09.620Z,1211.58
2022-08-21T02:40:09.650Z,1211.58
2022-08-21T02:41:09.598Z,1211.58
2022-08-21T02:42:08.892Z,1211.58
2022-08-21T02:43:08.912Z,1211.58
2022-08-21T02:44:09.564Z,1211.58
2022-08-21T02:45:09.565Z,1211.58
2022-08-21T02:46:09.539Z,1211.58
2022-08-21T02:47:09.524Z,1211.58
2022-08-21T02:48:09.516Z,1211.58
2022-08-21T02:49:09.506Z,1211.58
2022-08-21T02:50:09.502Z,1211.58
2022-08-21T02:51:08.808Z,1211.58
2022-08-21T02:52:09.476Z,1211.58
2022-08-21T02:53:08.895Z,1211.58
2022-08-21T02:54:10.756Z,1211.58
2022-08-21T02:55:09.448Z,1211.58
2022-08-21T02:56:08.744Z,1211.58
2022-08-21T02:57:09.425Z,1211.58
2022-08-21T02:58:09.406Z,1211.58
2022-08-21T02:59:09.396Z,1211.58
2022-08-21T03:00:09.385Z,1211.58
2022-08-21T03:01:09.377Z,1211.58
2022-08-21T03:02:09.386Z,1211.58
2022-08-21T03:03:09.599Z,1211.58
2022-08-21T03:04:09.358Z,1211.58
2022-08-21T03:05:08.670Z,1211.58
2022-08-21T03:06:09.328Z,1211.58
2022-08-21T03:07:11.203Z,1211.58
2022-08-21T03:08:09.298Z,1211.58
2022-08-21T03:09:09.289Z,1211.58
2022-08-21T03:10:08.601Z,1211.58
2022-08-21T03:11:08.644Z,1211.58
2022-08-21T03:12:09.253Z,1211.58
2022-08-21T03:13:09.240Z,1211.58
2022-08-21T03:14:08.564Z,1211.58
2022-08-21T03:15:09.222Z,1211.58
2022-08-21T03:16:10.093Z,1211.58
2022-08-21T03:17:08.548Z,1211.58
2022-08-21T03:18:10.952Z,1211.58
2022-08-21T03:19:09.180Z,1211.58
2022-08-21T03:20:09.181Z,1211.58
2022-08-21T03:21:08.495Z,1211.58
2022-08-21T03:22:08.506Z,1211.58
2022-08-21T03:23:13.392Z,1211.58
2022-08-21T03:24:10.136Z,1211.58
2022-08-21T03:25:08.504Z,1211.58
2022-08-21T03:26:09.105Z,1211.58
2022-08-21T03:27:09.410Z,1211.58
2022-08-21T03:28:08.424Z,1211.58
2022-08-21T03:29:08.424Z,1211.58
2022-08-21T03:30:09.077Z,1211.58
2022-08-21T03:31:09.047Z,1211.58
2022-08-21T03:32:09.035Z,1211.58
2022-08-21T03:33:08.411Z,1211.58
2022-08-21T03:34:09.015Z,1211.58
2022-08-21T03:35:09.006Z,1211.58
2022-08-21T03:36:08.308Z,1211.58
2022-08-21T03:37:08.989Z,1211.58
2022-08-21T03:38:08.288Z,1211.58
2022-08-21T03:39:08.277Z,1211.58
2022-08-21T03:40:09.052Z,1211.58
2022-08-21T03:41:08.946Z,1211.58
2022-08-21T03:42:08.277Z,1211.58
2022-08-21T03:43:08.247Z,1211.58
2022-08-21T03:44:08.239Z,1211.58
2022-08-21T03:45:08.222Z,1211.58
2022-08-21T03:46:08.897Z,1211.58
2022-08-21T03:47:10.259Z,1211.58
2022-08-21T03:48:08.869Z,1211.58
2022-08-21T03:49:08.189Z,1211.58
2022-08-21T03:50:09.100Z,1211.58
2022-08-21T03:51:08.844Z,1211.58
2022-08-21T03:52:09.072Z,1211.58
2022-08-21T03:53:08.891Z,1211.58
2022-08-21T03:54:11.997Z,1211.58
2022-08-21T03:55:08.790Z,1211.58
2022-08-21T03:56:08.132Z,1211.58
2022-08-21T03:57:08.774Z,1211.58
2022-08-21T03:58:17.014Z,1211.58
2022-08-21T03:59:09.733Z,1211.58
2022-08-21T04:00:09.005Z,1211.58
2022-08-21T04:01:08.043Z,1211.58
2022-08-21T04:02:08.082Z,1211.58
2022-08-21T04:03:08.707Z,1211.58
2022-08-21T04:04:08.023Z,1211.58
2022-08-21T04:05:08.674Z,1211.58
2022-08-21T04:06:10.460Z,1211.58
2022-08-21T04:07:07.991Z,1211.58
2022-08-21T04:08:07.965Z,1211.58
2022-08-21T04:09:08.646Z,1211.58
2022-08-21T04:10:07.965Z,1211.58
2022-08-21T04:11:09.397Z,1211.58
2022-08-21T04:12:07.926Z,1211.58
2022-08-21T04:13:08.858Z,1211.58
2022-08-21T04:14:07.928Z,1211.58
2022-08-21T04:15:07.937Z,1211.58
2022-08-21T04:16:08.852Z,1211.58
2022-08-21T04:17:07.920Z,1211.58
2022-08-21T04:18:07.867Z,1211.58
2022-08-21T04:19:07.910Z,1211.58
2022-08-21T04:20:07.848Z,1211.58
2022-08-21T04:21:08.517Z,1211.58
2022-08-21T04:22:08.528Z,1211.58
2022-08-21T04:23:07.858Z,1211.58
2022-08-21T04:24:07.808Z,1211.58
2022-08-21T04:25:08.730Z,1211.58
2022-08-21T04:26:07.797Z,1211.58
2022-08-21T04:27:08.452Z,1211.58
2022-08-21T04:28:08.733Z,1211.58
2022-08-21T04:29:10.415Z,1211.58
2022-08-21T04:30:08.421Z,1211.58
2022-08-21T04:31:07.733Z,1211.58
2022-08-21T04:32:08.409Z,1211.58
2022-08-21T04:33:07.745Z,1211.58
2022-08-21T04:34:08.382Z,1211.58
2022-08-21T04:35:07.771Z,1211.58
2022-08-21T04:36:07.682Z,1211.58
2022-08-21T04:37:07.655Z,1211.58
2022-08-21T04:38:08.333Z,1211.58
2022-08-21T04:39:10.101Z,1211.58
2022-08-21T04:40:08.388Z,1211.58
2022-08-21T04:41:07.885Z,1211.58
2022-08-21T04:42:08.315Z,1211.58
2022-08-21T04:43:08.282Z,1211.58
2022-08-21T04:44:08.278Z,1211.58
2022-08-21T04:45:08.258Z,1211.58
2022-08-21T04:46:07.571Z,1211.58
2022-08-21T04:47:08.876Z,1211.58
2022-08-21T04:48:13.304Z,1211.58
2022-08-21T04:49:08.905Z,1211.58
2022-08-21T04:50:08.215Z,1211.58
2022-08-21T04:51:09.945Z,1211.58
2022-08-21T04:52:08.186Z,1211.58
2022-08-21T04:53:07.548Z,1211.58
2022-08-21T04:54:07.497Z,1211.58
2022-08-21T04:55:08.166Z,1211.58
2022-08-21T04:56:07.448Z,1211.58
2022-08-21T04:57:07.456Z,1211.58
2022-08-21T04:58:08.119Z,1211.58
2022-08-21T04:59:08.099Z,1211.58
2022-08-21T05:00:13.623Z,1211.58
2022-08-21T05:01:09.872Z,1211.58
2022-08-21T05:02:08.082Z,1211.58
2022-08-21T05:03:07.382Z,1211.58
2022-08-21T05:04:07.372Z,1211.58
2022-08-21T05:05:08.039Z,1211.58
2022-08-21T05:06:08.031Z,1211.58
2022-08-21T05:07:08.041Z,1211.58
2022-08-21T05:08:08.021Z,1211.58
2022-08-21T05:09:08.062Z,1211.58
2022-08-21T05:10:08.003Z,1211.58
2022-08-21T05:11:07.980Z,1211.58
2022-08-21T05:12:07.979Z,1211.58
2022-08-21T05:13:07.954Z,1211.58
2022-08-21T05:14:07.962Z,1211.58
2022-08-21T05:15:07.297Z,1211.58
2022-08-21T05:16:08.913Z,1211.58
2022-08-21T05:17:07.921Z,1211.58
2022-08-21T05:18:07.255Z,1211.58
2022-08-21T05:19:07.894Z,1211.58
2022-08-21T05:20:07.894Z,1211.58
2022-08-21T05:21:09.143Z,1211.58
2022-08-21T05:22:07.854Z,1211.58
2022-08-21T05:23:07.185Z,1211.58
2022-08-21T05:24:07.176Z,1211.58
2022-08-21T05:25:10.564Z,1211.58
2022-08-21T05:26:08.556Z,1211.58
2022-08-21T05:27:09.076Z,1211.58
2022-08-21T05:28:07.117Z,1211.58
2022-08-21T05:29:11.851Z,1211.58
2022-08-21T05:30:08.840Z,1211.58
2022-08-21T05:31:09.017Z,1211.58
2022-08-21T05:32:07.099Z,1211.58
2022-08-21T05:33:07.733Z,1211.58
2022-08-21T05:34:07.728Z,1211.58
2022-08-21T05:35:07.729Z,1211.58
2022-08-21T05:36:07.729Z,1211.58
2022-08-21T05:37:07.913Z,1211.58
2022-08-21T05:38:07.016Z,1211.58
2022-08-21T05:39:08.118Z,1211.58
2022-08-21T05:40:22.703Z,1211.58
2022-08-21T05:41:09.423Z,1211.58
2022-08-21T05:42:07.649Z,1211.58
2022-08-21T05:43:06.976Z,1211.58
2022-08-21T05:44:10.543Z,1211.58
2022-08-21T05:45:07.612Z,1211.58
2022-08-21T05:46:07.613Z,1211.58
2022-08-21T05:47:07.590Z,1211.58
2022-08-21T05:48:07.594Z,1211.58
2022-08-21T05:49:06.938Z,1211.58
2022-08-21T05:50:06.875Z,1211.58
2022-08-21T05:51:07.643Z,1211.58
2022-08-21T05:52:07.542Z,1211.58
2022-08-21T05:53:08.012Z,1211.58
2022-08-21T05:54:07.514Z,1211.58
2022-08-21T05:55:06.839Z,1211.58
2022-08-21T05:58:20.389Z,1013.16
2022-08-21T05:59:21.338Z,1013.18
2022-08-21T06:00:19.948Z,1013.21
2022-08-21T06:01:19.494Z,1013.18
2022-08-21T06:02:21.861Z,1013.17
2022-08-21T06:03:20.334Z,1013.16
2022-08-21T06:04:21.897Z,1013.15
2022-08-21T06:05:33.416Z,1013.16
2022-08-21T06:06:20.391Z,1013.16
2022-08-21T06:07:19.402Z,1013.17
2022-08-21T06:08:19.371Z,1013.15
2022-08-21T06:09:20.002Z,1013.12
2022-08-21T06:10:20.329Z,1013.19
2022-08-21T06:11:20.812Z,1013.22
2022-08-21T06:12:19.313Z,1013.16
2022-08-21T06:13:19.310Z,1013.19
2022-08-21T06:14:20.718Z,1013.22
2022-08-21T06:15:19.933Z,1013.23
2022-08-21T06:16:19.924Z,1013.25
2022-08-21T06:17:19.234Z,1013.21
2022-08-21T06:18:19.271Z,1013.23
2022-08-21T06:19:19.894Z,1013.26
2022-08-21T06:20:19.321Z,1013.20
2022-08-21T06:21:19.258Z,1013.15
2022-08-21T06:22:19.257Z,1013.19
2022-08-21T06:23:19.188Z,1013.20
2022-08-21T06:24:19.218Z,1013.25
2022-08-21T06:25:19.835Z,1013.29
2022-08-21T06:26:19.818Z,1013.27
2022-08-21T06:27:22.429Z,1013.26
2022-08-21T06:28:20.172Z,1013.26
2022-08-21T06:29:19.119Z,1013.33
2022-08-21T06:30:20.061Z,1013.29
2022-08-21T06:31:19.081Z,1013.33
2022-08-21T06:32:19.091Z,1013.33
2022-08-21T06:33:19.741Z,1013.32
2022-08-21T06:34:19.101Z,1013.36
2022-08-21T06:35:19.081Z,1013.33
2022-08-21T06:36:19.163Z,1013.39
2022-08-21T06:37:19.692Z,1013.37
2022-08-21T06:38:19.693Z,1013.36
2022-08-21T06:39:25.267Z,1013.37
2022-08-21T06:40:20.098Z,1013.38
2022-08-21T06:41:24.176Z,1013.38
2022-08-21T06:42:21.913Z,1013.35
2022-08-21T06:43:19.965Z,1013.35
2022-08-21T06:44:18.947Z,1013.36
2022-08-21T06:45:19.613Z,1013.39
2022-08-21T06:46:19.605Z,1013.35
2022-08-21T06:47:19.594Z,1013.32
2022-08-21T06:48:19.598Z,1013.33
2022-08-21T06:49:21.513Z,1013.32
2022-08-21T06:50:18.980Z,1013.33
2022-08-21T06:51:19.557Z,1013.32
2022-08-21T06:52:18.960Z,1013.33
2022-08-21T06:53:18.940Z,1013.31
2022-08-21T06:54:21.300Z,1013.28
2022-08-21T06:55:22.376Z,1013.33
2022-08-21T06:56:19.499Z,1013.32
2022-08-21T06:57:19.505Z,1013.32
2022-08-21T06:58:18.836Z,1013.31
2022-08-21T06:59:18.813Z,1013.29
2022-08-21T07:00:18.780Z,1013.30
2022-08-21T07:01:18.892Z,1013.34
2022-08-21T07:02:18.743Z,1013.29
2022-08-21T07:03:18.735Z,1013.30
2022-08-21T07:04:19.413Z,1013.28
2022-08-21T07:05:19.416Z,1013.30
2022-08-21T07:06:18.762Z,1013.30
2022-08-21T07:07:21.133Z,1013.31
2022-08-21T07:08:19.624Z,1013.34
2022-08-21T07:09:21.539Z,1013.32
2022-08-21T07:10:22.386Z,1013.28
2022-08-21T07:11:21.095Z,1013.26
2022-08-21T07:12:18.646Z,1013.28
2022-08-21T07:13:19.376Z,1013.32
2022-08-21T07:14:20.441Z,1013.27
2022-08-21T07:15:18.635Z,1013.28
2022-08-21T07:16:18.629Z,1013.29
2022-08-21T07:17:19.285Z,1013.29
2022-08-21T07:18:19.301Z,1013.26
2022-08-21T07:19:20.998Z,1013.30
2022-08-21T07:20:18.575Z,1013.29
2022-08-21T07:21:22.644Z,1013.28
2022-08-21T07:22:21.527Z,1013.28
2022-08-21T07:23:19.230Z,1013.28
2022-08-21T07:24:18.529Z,1013.26
2022-08-21T07:25:19.200Z,1013.28
2022-08-21T07:26:18.517Z,1013.24
2022-08-21T07:27:18.504Z,1013.26
2022-08-21T07:28:19.186Z,1013.29
2022-08-21T07:29:19.181Z,1013.28
2022-08-21T07:30:19.156Z,1013.29
2022-08-21T07:31:19.138Z,1013.23
2022-08-21T07:32:21.409Z,1013.22
2022-08-21T07:33:18.442Z,1013.22
2022-08-21T07:34:18.489Z,1013.27
2022-08-21T07:35:19.104Z,1013.22
2022-08-21T07:36:19.127Z,1013.25
2022-08-21T07:37:18.405Z,1013.21
2022-08-21T07:38:18.389Z,1013.22
2022-08-21T07:39:19.067Z,1013.23
2022-08-21T07:40:18.510Z,1013.23
2022-08-21T07:41:19.027Z,1013.23
2022-08-21T07:42:19.044Z,1013.25
2022-08-21T07:43:19.013Z,1013.20
2022-08-21T07:44:18.328Z,1013.18
2022-08-21T07:45:19.024Z,1013.15
2022-08-21T07:46:19.060Z,1013.16
2022-08-21T07:47:29.546Z,1013.11
2022-08-21T07:48:19.325Z,1013.13
2022-08-21T07:49:18.269Z,1013.15
2022-08-21T07:50:18.959Z,1013.17
2022-08-21T07:51:20.676Z,1013.15
2022-08-21T07:52:18.922Z,1013.12
2022-08-21T07:53:18.223Z,1013.14
2022-08-21T07:54:18.903Z,1013.07
2022-08-21T07:55:20.063Z,1013.10
2022-08-21T07:56:18.896Z,1013.10
2022-08-21T07:57:21.815Z,1013.08
2022-08-21T07:58:18.204Z,1013.08
2022-08-21T07:59:18.845Z,1013.07
2022-08-21T08:00:18.837Z,1013.11
2022-08-21T08:01:18.875Z,1013.07
2022-08-21T08:02:18.131Z,1013.08
2022-08-21T08:03:27.532Z,1013.00
2022-08-21T08:04:24.458Z,1013.07
2022-08-21T08:05:19.796Z,1013.00
2022-08-21T08:06:18.086Z,1013.04
2022-08-21T08:07:18.078Z,1013.01
2022-08-21T08:08:18.751Z,1013.00
2022-08-21T08:09:18.063Z,1013.01
2022-08-21T08:10:18.729Z,1013.00
2022-08-21T08:11:18.720Z,1013.03
2022-08-21T08:12:18.737Z,1012.99
2022-08-21T08:13:18.009Z,1013.03
2022-08-21T08:14:18.017Z,1013.01
2022-08-21T08:15:20.453Z,1013.01
2022-08-21T08:16:18.029Z,1012.99
2022-08-21T08:17:18.662Z,1013.02
2022-08-21T08:18:18.648Z,1013.04
2022-08-21T08:19:17.964Z,1013.01
2022-08-21T08:20:18.632Z,1012.99
2022-08-21T08:21:18.622Z,1012.97
2022-08-21T08:22:18.017Z,1012.94
2022-08-21T08:23:18.602Z,1012.94
2022-08-21T08:24:19.750Z,1012.95
2022-08-21T08:25:18.616Z,1012.93
2022-08-21T08:26:18.566Z,1012.92
2022-08-21T08:27:18.556Z,1012.97
2022-08-21T08:28:18.547Z,1012.99
2022-08-21T08:29:17.866Z,1012.93
2022-08-21T08:30:18.528Z,1012.90
2022-08-21T08:31:18.517Z,1012.94
2022-08-21T08:32:18.528Z,1012.91
2022-08-21T08:33:17.808Z,1012.90
2022-08-21T08:34:23.436Z,1012.89
2022-08-21T08:35:23.622Z,1012.89
2022-08-21T08:36:18.476Z,1012.88
2022-08-21T08:37:18.450Z,1012.87
2022-08-21T08:38:17.790Z,1012.90
2022-08-21T08:39:26.839Z,1012.89
2022-08-21T08:40:19.502Z,1012.91
2022-08-21T08:41:18.412Z,1012.89
2022-08-21T08:42:34.042Z,1012.88
2022-08-21T08:43:19.396Z,1012.88
2022-08-21T08:44:17.703Z,1012.81
2022-08-21T08:45:18.402Z,1012.87
2022-08-21T08:46:18.355Z,1012.84
2022-08-21T08:47:18.354Z,1012.75
2022-08-21T08:48:18.354Z,1012.83
2022-08-21T08:49:18.328Z,1012.82
2022-08-21T08:50:18.368Z,1012.86
2022-08-21T08:51:17.609Z,1012.78
2022-08-21T08:52:18.294Z,1012.80
2022-08-21T08:53:18.290Z,1012.84
2022-08-21T08:54:17.634Z,1012.79
2022-08-21T08:55:18.268Z,1012.83
2022-08-21T08:56:18.260Z,1012.82
2022-08-21T08:57:18.259Z,1012.80
2022-08-21T08:58:18.227Z,1012.82
2022-08-21T08:59:18.241Z,1012.83
2022-08-21T09:00:17.571Z,1012.79
2022-08-21T09:01:18.330Z,1012.76
2022-08-21T09:02:17.518Z,1012.70
2022-08-21T09:03:18.190Z,1012.67
2022-08-21T09:04:18.256Z,1012.69
2022-08-21T09:05:18.161Z,1012.68
2022-08-21T09:06:17.474Z,1012.63
2022-08-21T09:07:19.650Z,1012.71
2022-08-21T09:08:18.990Z,1012.60
2022-08-21T09:09:18.127Z,1012.69
2022-08-21T09:10:18.185Z,1012.66
2022-08-21T09:11:17.435Z,1012.70
2022-08-21T09:12:17.413Z,1012.64
2022-08-21T09:13:17.414Z,1012.65
2022-08-21T09:14:18.068Z,1012.60
2022-08-21T09:15:18.348Z,1012.64
2022-08-21T09:16:19.847Z,1012.61
2022-08-21T09:17:18.039Z,1012.58
2022-08-21T09:18:17.350Z,1012.65
2022-08-21T09:19:18.020Z,1012.65
2022-08-21T09:20:20.238Z,1012.62
2022-08-21T09:21:17.999Z,1012.61
2022-08-21T09:22:17.993Z,1012.56
2022-08-21T09:23:17.388Z,1012.55
2022-08-21T09:24:17.310Z,1012.47
2022-08-21T09:25:19.825Z,1012.50
2022-08-21T09:26:17.951Z,1012.49
2022-08-21T09:27:17.302Z,1012.44
2022-08-21T09:28:17.933Z,1012.52
2022-08-21T09:29:17.223Z,1012.56
2022-08-21T09:30:18.103Z,1012.64
2022-08-21T09:31:17.893Z,1012.64
2022-08-21T09:32:18.862Z,1012.64
2022-08-21T09:33:17.185Z,1012.66
2022-08-21T09:34:17.854Z,1012.60
2022-08-21T09:35:17.843Z,1012.62
2022-08-21T09:36:17.838Z,1012.58
2022-08-21T09:37:18.013Z,1012.63
2022-08-21T09:38:17.818Z,1012.58
2022-08-21T09:39:18.026Z,1012.61
2022-08-21T09:40:17.950Z,1012.60
2022-08-21T09:41:17.088Z,1012.63
2022-08-21T09:42:17.779Z,1012.57
2022-08-21T09:43:17.767Z,1012.57
2022-08-21T09:44:17.759Z,1012.59
2022-08-21T09:45:17.103Z,1012.61
2022-08-21T09:46:17.076Z,1012.62
2022-08-21T09:47:17.723Z,1012.55
2022-08-21T09:48:17.715Z,1012.54
2022-08-21T09:49:17.029Z,1012.62
2022-08-21T09:50:17.032Z,1012.56
2022-08-21T09:51:18.926Z,1012.51
2022-08-21T09:52:17.669Z,1012.58
2022-08-21T09:53:16.983Z,1012.62
2022-08-21T09:54:18.392Z,1012.57
2022-08-21T09:55:19.413Z,1012.59
2022-08-21T09:56:17.632Z,1012.64
2022-08-21T09:57:17.633Z,1012.56
2022-08-21T09:58:17.883Z,1012.55
2022-08-21T09:59:16.920Z,1012.51
2022-08-21T10:00:16.903Z,1012.52
2022-08-21T10:01:17.644Z,1012.51
2022-08-21T10:02:17.575Z,1012.49
2022-08-21T10:03:17.583Z,1012.49
2022-08-21T10:04:17.572Z,1012.55
2022-08-21T10:05:17.549Z,1012.54
2022-08-21T10:06:16.867Z,1012.52
2022-08-21T10:07:16.858Z,1012.52
2022-08-21T10:08:17.508Z,1012.55
2022-08-21T10:09:21.291Z,1012.51
2022-08-21T10:10:17.478Z,1012.53
2022-08-21T10:11:17.496Z,1012.45
2022-08-21T10:12:16.798Z,1012.48
2022-08-21T10:13:16.788Z,1012.49
2022-08-21T10:14:16.750Z,1012.51
2022-08-21T10:15:19.592Z,1012.48
2022-08-21T10:16:17.410Z,1012.50
2022-08-21T10:17:16.734Z,1012.54
2022-08-21T10:18:16.730Z,1012.56
2022-08-21T10:19:16.733Z,1012.57
2022-08-21T10:20:16.712Z,1012.57
2022-08-21T10:21:17.385Z,1012.54
2022-08-21T10:22:16.742Z,1012.50
2022-08-21T10:23:17.362Z,1012.50
2022-08-21T10:24:21.382Z,1012.49
2022-08-21T10:25:19.603Z,1012.49
2022-08-21T10:26:17.335Z,1012.51
2022-08-21T10:27:16.664Z,1012.53
2022-08-21T10:28:17.304Z,1012.57
2022-08-21T10:29:16.618Z,1012.55
2022-08-21T10:30:17.286Z,1012.52
2022-08-21T10:31:17.276Z,1012.55
2022-08-21T10:32:25.676Z,1012.55
2022-08-21T10:33:18.247Z,1012.51
2022-08-21T10:34:17.248Z,1012.49
2022-08-21T10:35:17.238Z,1012.48
2022-08-21T10:36:17.221Z,1012.52
2022-08-21T10:37:17.212Z,1012.47
2022-08-21T10:38:39.259Z,1012.47
2022-08-21T10:39:26.872Z,1012.52
2022-08-21T10:40:18.386Z,1012.47
2022-08-21T10:41:16.481Z,1012.50
2022-08-21T10:42:17.166Z,1012.46
2022-08-21T10:43:17.409Z,1012.45
2022-08-21T10:44:17.381Z,1012.50
2022-08-21T10:45:17.122Z,1012.45
2022-08-21T10:46:17.126Z,1012.41
2022-08-21T10:47:17.113Z,1012.38
2022-08-21T10:48:16.415Z,1012.38
2022-08-21T10:49:17.094Z,1012.39
2022-08-21T10:50:16.409Z,1012.42
2022-08-21T10:51:16.432Z,1012.40
2022-08-21T10:52:16.392Z,1012.39
2022-08-21T10:53:17.047Z,1012.34
2022-08-21T10:54:20.207Z,1012.35
2022-08-21T10:55:19.285Z,1012.32
2022-08-21T10:56:17.034Z,1012.32
2022-08-21T10:57:16.366Z,1012.30
2022-08-21T10:58:18.155Z,1012.26
2022-08-21T10:59:16.328Z,1012.28
2022-08-21T11:00:16.977Z,1012.28
2022-08-21T11:01:16.365Z,1012.27
2022-08-21T11:02:16.964Z,1012.29
2022-08-21T11:03:16.937Z,1012.30
2022-08-21T11:04:16.937Z,1012.31
2022-08-21T11:05:16.242Z,1012.31
2022-08-21T11:06:16.911Z,1012.28
2022-08-21T11:07:17.490Z,1012.23
2022-08-21T11:08:16.244Z,1012.26
2022-08-21T11:09:16.874Z,1012.22
2022-08-21T11:10:16.182Z,1012.25
2022-08-21T11:11:19.957Z,1012.19
2022-08-21T11:12:17.172Z,1012.21
2022-08-21T11:13:18.129Z,1012.18
2022-08-21T11:14:16.846Z,1012.27
2022-08-21T11:15:29.033Z,1012.22
2022-08-21T11:16:18.054Z,1012.24
2022-08-21T11:17:20.134Z,1012.27
2022-08-21T11:18:18.071Z,1012.21
2022-08-21T11:19:16.777Z,1012.29
2022-08-21T11:20:16.167Z,1012.34
2022-08-21T11:21:16.126Z,1012.28
2022-08-21T11:22:16.753Z,1012.27
2022-08-21T11:23:16.726Z,1012.25
2022-08-21T11:24:16.717Z,1012.23
2022-08-21T11:25:16.060Z,1012.23
2022-08-21T11:26:16.700Z,1012.28
2022-08-21T11:27:16.684Z,1012.23
2022-08-21T11:28:16.009Z,1012.22
2022-08-21T11:29:16.661Z,1012.23
2022-08-21T11:30:16.000Z,1012.30
2022-08-21T11:31:17.384Z,1012.34
2022-08-21T11:32:16.642Z,1012.30
2022-08-21T11:33:16.631Z,1012.32
2022-08-21T11:34:15.931Z,1012.29
2022-08-21T11:35:16.618Z,1012.31
2022-08-21T11:36:15.927Z,1012.28
2022-08-21T11:37:15.914Z,1012.23
2022-08-21T11:38:15.945Z,1012.27
2022-08-21T11:39:15.923Z,1012.25
2022-08-21T11:40:15.915Z,1012.27
2022-08-21T11:41:15.872Z,1012.24
2022-08-21T11:42:17.794Z,1012.29
2022-08-21T11:43:15.869Z,1012.28
2022-08-21T11:44:15.845Z,1012.25
2022-08-21T11:45:17.255Z,1012.25
2022-08-21T11:46:16.486Z,1012.25
2022-08-21T11:47:16.487Z,1012.17
2022-08-21T11:48:15.787Z,1012.24
2022-08-21T11:49:15.776Z,1012.26
2022-08-21T11:50:32.498Z,1012.22
2022-08-21T11:51:16.807Z,1012.26
2022-08-21T11:52:16.437Z,1012.26
2022-08-21T11:53:15.801Z,1012.23
2022-08-21T11:54:16.418Z,1012.21
2022-08-21T11:55:16.413Z,1012.26
2022-08-21T11:56:16.699Z,1012.26
2022-08-21T11:57:16.382Z,1012.26
2022-08-21T11:58:15.717Z,1012.23
2022-08-21T11:59:16.352Z,1012.23
2022-08-21T12:00:16.354Z,1012.27
2022-08-21T12:01:15.641Z,1012.31
2022-08-21T12:02:15.708Z,1012.26
2022-08-21T12:03:15.654Z,1012.30
2022-08-21T12:04:15.622Z,1012.27
2022-08-21T12:05:15.627Z,1012.30
2022-08-21T12:06:24.499Z,1012.26
2022-08-21T12:07:18.413Z,1012.32